Hauptseite
METAR-TAF:

METAR-TAF

Flughäfen :

Vlissingen, Niederlande

Breite: 51-27N, Länge: 3-36E, Höhe: 10 m

Beobachtung

Neuester Wetterbericht von vor 28 Minuten, um 16:25 UTC
Wind 14 kt aus West
Temperatur 9°C
Luftfeuchtigkeit 71%
Luftdruck 1018 hPa
Sichtweite 10 km oder mehr

METAR: EHFS 231625Z AUTO 28014KT 9999 SCT019/// BKN022/// OVC039/// 09/04 Q1018

Zeit: 18:53 (16:53 UTC)


TAF: fehlend

Wetterbeobachtungen und Prognosen von mehr als 4000 Flughäfen (METAR und TAF Bericht).

Die verfügbaren Stationen werden durch gelbe und rote Markierungen auf der Karte dargestellt.

Führen Sie die Maus auf sie, um den Namen der Station zu sehen.

Darauf klicken, um die Beobachtung von Wetterbeobachtungen und Prognosen zu sehen.

Um die Karte zu ändern : klicken Sie auf den grünen Tasten mit einem schwarzen Kreuz Zum Vergrößern, auf den grünen Button mit einem Gedankenstrich zu verkleinern, oder auf die grünen Pfeile für benachbarte Karten.


METAR-TAF: